Time;durP1;ratioP1;P1;durP2;ratioP2;P2;SDS_P1;SDS_P2;PMS_P1;PMS_P2;Temp;Humidity;BMP_temperature;BMP_pressure;BME280_temperature;BME280_humidity;BME280_pressure;Samples;Min_cycle;Max_cycle;Signal;HPM_P1;HPM_P2
2023/04/21 00:00:59;;;;;;;4.90;3.20;;;11.70;99.90;;;;;;4989763;28;20038;-52
2023/04/21 00:03:26;;;;;;;7.15;3.50;;;11.70;99.90;;;;;;5020681;28;20046;-49
2023/04/21 00:05:55;;;;;;;4.60;3.45;;;11.70;99.90;;;;;;5073040;28;20135;-50
2023/04/21 00:08:21;;;;;;;4.63;3.15;;;11.70;99.90;;;;;;5064450;28;20493;-49
2023/04/21 00:10:46;;;;;;;4.88;2.97;;;11.70;99.90;;;;;;5075027;28;20032;-50
2023/04/21 00:13:13;;;;;;;5.57;3.63;;;11.80;99.90;;;;;;5076389;28;20070;-49
2023/04/21 00:15:39;;;;;;;3.78;2.78;;;11.60;99.90;;;;;;5080077;28;20036;-51
2023/04/21 00:18:05;;;;;;;6.63;3.53;;;11.60;99.90;;;;;;5017349;28;20391;-51
2023/04/21 00:20:30;;;;;;;5.38;3.10;;;11.50;99.90;;;;;;5074961;28;20035;-51
2023/04/21 00:22:57;;;;;;;5.25;3.08;;;11.60;99.90;;;;;;5081766;28;20119;-48
2023/04/21 00:25:24;;;;;;;5.03;3.05;;;11.40;99.90;;;;;;5067028;28;20042;-50
2023/04/21 00:27:50;;;;;;;5.85;3.10;;;11.50;99.90;;;;;;5083508;28;20495;-50
2023/04/21 00:30:16;;;;;;;5.40;2.80;;;11.50;99.90;;;;;;5083371;28;20032;-49
2023/04/21 00:32:41;;;;;;;6.50;3.15;;;11.40;99.90;;;;;;5072695;28;20087;-50
2023/04/21 00:35:08;;;;;;;4.05;2.83;;;11.30;99.90;;;;;;5084316;28;20038;-51
2023/04/21 00:37:34;;;;;;;3.72;2.55;;;11.20;99.90;;;;;;5077674;28;20048;-50
2023/04/21 00:40:00;;;;;;;7.32;3.05;;;11.40;99.90;;;;;;5054741;28;20062;-50
2023/04/21 00:42:26;;;;;;;4.50;2.88;;;11.50;99.90;;;;;;5078008;28;20036;-51
2023/04/21 00:44:51;;;;;;;3.80;2.92;;;11.50;99.90;;;;;;5044216;28;20045;-48
2023/04/21 00:47:18;;;;;;;3.88;2.78;;;11.60;99.90;;;;;;5078251;28;20035;-49
2023/04/21 00:49:45;;;;;;;3.65;2.42;;;11.50;99.90;;;;;;5078377;28;20060;-52
2023/04/21 00:52:11;;;;;;;4.80;3.10;;;11.60;99.90;;;;;;5046781;28;20055;-51
2023/04/21 00:54:38;;;;;;;4.15;3.17;;;11.60;99.90;;;;;;5075548;28;20032;-49
2023/04/21 00:57:06;;;;;;;4.10;2.90;;;11.60;99.90;;;;;;5074898;28;20024;-48
2023/04/21 00:59:32;;;;;;;3.92;2.90;;;11.60;99.90;;;;;;5073096;28;20359;-49
2023/04/21 01:01:58;;;;;;;4.60;3.45;;;11.60;99.90;;;;;;5077853;28;20119;-51
2023/04/21 01:04:24;;;;;;;6.40;3.20;;;11.60;99.90;;;;;;5080702;28;20020;-49
2023/04/21 01:06:51;;;;;;;4.78;2.97;;;11.40;99.90;;;;;;5076604;28;20052;-51
2023/04/21 01:09:17;;;;;;;4.07;2.90;;;11.30;99.90;;;;;;5079877;28;20025;-50
2023/04/21 01:12:01;;;;;;;5.32;3.22;;;11.20;99.90;;;;;;5075336;28;20058;-49
2023/04/21 01:14:26;;;;;;;3.20;2.58;;;11.20;99.90;;;;;;5080731;28;20111;-51
2023/04/21 01:16:52;;;;;;;2.88;2.40;;;;;;;;;;5063841;28;20119;-51
2023/04/21 01:19:19;;;;;;;4.55;3.00;;;10.60;99.90;;;;;;5072712;28;20041;-51
2023/04/21 01:21:45;;;;;;;4.03;2.75;;;;;;;;;;5043092;28;20483;-48
2023/04/21 01:24:11;;;;;;;3.03;2.08;;;10.50;99.90;;;;;;5077972;28;20039;-49
2023/04/21 01:26:38;;;;;;;4.95;3.05;;;10.50;99.90;;;;;;5077950;28;20486;-51
2023/04/21 01:29:03;;;;;;;3.85;3.33;;;10.40;99.90;;;;;;5078497;28;20110;-49
2023/04/21 01:31:29;;;;;;;6.53;4.05;;;10.20;99.90;;;;;;5034965;28;20124;-49
2023/04/21 01:33:55;;;;;;;5.25;3.33;;;10.40;99.90;;;;;;5076787;28;20027;-51
2023/04/21 01:36:21;;;;;;;4.57;2.58;;;10.50;99.90;;;;;;5042947;28;20446;-49
2023/04/21 01:38:46;;;;;;;5.40;3.58;;;10.60;99.90;;;;;;5040723;28;20045;-51
2023/04/21 01:41:12;;;;;;;5.90;3.47;;;10.60;99.90;;;;;;5081244;28;20057;-49
2023/04/21 01:43:38;;;;;;;5.38;3.25;;;10.70;99.90;;;;;;5044189;28;20056;-51
2023/04/21 01:46:05;;;;;;;4.05;2.90;;;10.80;99.90;;;;;;5070032;28;20028;-48
2023/04/21 01:48:31;;;;;;;7.18;4.15;;;10.80;99.90;;;;;;5079482;28;20037;-50
2023/04/21 01:50:56;;;;;;;6.75;3.88;;;10.80;99.90;;;;;;5040749;28;20144;-51
2023/04/21 01:53:22;;;;;;;5.43;3.67;;;10.80;99.90;;;;;;5047797;28;20072;-50
2023/04/21 01:55:48;;;;;;;5.68;3.72;;;10.80;99.90;;;;;;5016587;28;20523;-48
2023/04/21 01:58:13;;;;;;;7.68;3.72;;;10.80;99.90;;;;;;5085273;28;20076;-49
2023/04/21 02:00:39;;;;;;;5.20;3.50;;;10.90;99.90;;;;;;5080154;28;20020;-50
2023/04/21 02:03:05;;;;;;;5.95;3.63;;;10.80;99.90;;;;;;5031702;28;20096;-49
2023/04/21 02:05:31;;;;;;;6.55;3.90;;;11.00;99.90;;;;;;5039866;28;20135;-48
2023/04/21 02:07:57;;;;;;;4.97;3.08;;;11.00;99.90;;;;;;5078294;28;20059;-50
2023/04/21 02:10:23;;;;;;;6.57;3.63;;;;;;;;;;5075882;28;20552;-51
2023/04/21 02:12:48;;;;;;;4.90;3.53;;;11.20;99.90;;;;;;5033185;28;20037;-51
2023/04/21 02:15:14;;;;;;;6.32;4.13;;;11.20;99.90;;;;;;5070079;28;20047;-48
2023/04/21 02:17:43;;;;;;;7.00;4.43;;;11.20;99.90;;;;;;5065194;28;20111;-48
2023/04/21 02:20:11;;;;;;;3.80;2.88;;;11.30;99.90;;;;;;5080889;28;20031;-48
2023/04/21 02:22:37;;;;;;;6.15;3.05;;;11.20;99.90;;;;;;5081369;28;20036;-49
2023/04/21 02:25:04;;;;;;;5.57;3.72;;;11.30;99.90;;;;;;5078384;28;20526;-49
2023/04/21 02:27:29;;;;;;;5.90;3.58;;;11.20;99.90;;;;;;5003910;28;20036;-49
2023/04/21 02:29:55;;;;;;;3.85;2.97;;;11.20;99.90;;;;;;5081784;28;20434;-49
2023/04/21 02:32:21;;;;;;;4.78;3.55;;;10.90;99.90;;;;;;5074699;28;20111;-51
2023/04/21 02:34:46;;;;;;;4.28;3.10;;;10.90;99.90;;;;;;5086075;28;20077;-51
2023/04/21 02:37:12;;;;;;;4.72;3.15;;;10.90;99.90;;;;;;5072780;28;20028;-51
2023/04/21 02:39:38;;;;;;;6.00;3.90;;;11.00;99.90;;;;;;5079610;28;20100;-51
2023/04/21 02:42:03;;;;;;;4.22;3.10;;;11.10;99.90;;;;;;5072973;28;20472;-50
2023/04/21 02:44:29;;;;;;;4.57;2.97;;;11.00;99.90;;;;;;5072354;28;20028;-49
2023/04/21 02:46:55;;;;;;;5.43;3.35;;;10.90;99.90;;;;;;5075669;28;20036;-52
2023/04/21 02:49:21;;;;;;;5.68;4.03;;;10.90;99.90;;;;;;5039235;28;20049;-48
2023/04/21 02:51:47;;;;;;;5.38;3.08;;;11.00;99.90;;;;;;5054655;28;20029;-51
2023/04/21 02:54:12;;;;;;;5.68;3.78;;;10.90;99.90;;;;;;5033989;28;20464;-49
2023/04/21 02:56:38;;;;;;;5.50;3.60;;;10.80;99.90;;;;;;5060743;28;20365;-49
2023/04/21 02:59:04;;;;;;;5.05;3.95;;;10.80;99.90;;;;;;5050724;28;20036;-50
2023/04/21 03:01:29;;;;;;;4.03;3.47;;;10.80;99.90;;;;;;5057792;28;20021;-50
2023/04/21 03:03:55;;;;;;;5.25;3.60;;;10.60;99.90;;;;;;5058260;28;20120;-50
2023/04/21 03:06:21;;;;;;;9.60;5.53;;;10.80;99.90;;;;;;5052954;28;20476;-48
2023/04/21 03:08:47;;;;;;;6.40;4.45;;;10.80;99.90;;;;;;5061174;28;20119;-49
2023/04/21 03:11:12;;;;;;;6.68;4.65;;;10.90;99.90;;;;;;5052323;28;20535;-51
2023/04/21 03:13:38;;;;;;;6.50;3.63;;;10.90;99.90;;;;;;5054902;28;20041;-48
2023/04/21 03:16:04;;;;;;;6.90;4.10;;;11.00;99.90;;;;;;5055508;28;20060;-51
2023/04/21 03:18:34;;;;;;;4.78;3.60;;;11.00;99.90;;;;;;5010770;28;20048;-50
2023/04/21 03:21:00;;;;;;;5.65;3.53;;;11.10;99.90;;;;;;5063107;28;20154;-49
2023/04/21 03:23:26;;;;;;;5.05;3.72;;;11.20;99.90;;;;;;5036665;28;20553;-49
2023/04/21 03:25:52;;;;;;;6.63;3.55;;;11.20;99.90;;;;;;5054329;28;20025;-50
2023/04/21 03:28:18;;;;;;;4.70;3.63;;;11.20;99.90;;;;;;5034476;28;20033;-49
2023/04/21 03:30:44;;;;;;;4.78;3.85;;;11.20;99.90;;;;;;5052504;28;20033;-49
2023/04/21 03:33:09;;;;;;;5.05;3.20;;;11.10;99.90;;;;;;5018732;28;20048;-52
2023/04/21 03:35:35;;;;;;;5.65;3.53;;;11.00;99.90;;;;;;5039944;28;20033;-50
2023/04/21 03:38:01;;;;;;;4.45;3.15;;;11.00;99.90;;;;;;5053648;28;20040;-50
2023/04/21 03:40:26;;;;;;;4.80;3.40;;;11.00;99.90;;;;;;5055493;28;20054;-61
2023/04/21 03:42:52;;;;;;;4.40;3.28;;;10.90;99.90;;;;;;5037103;28;20046;-52
2023/04/21 03:45:21;;;;;;;4.75;3.40;;;11.00;99.90;;;;;;5043565;28;20029;-51
2023/04/21 03:47:47;;;;;;;4.90;3.65;;;10.80;99.90;;;;;;5028526;28;20115;-51
2023/04/21 03:50:13;;;;;;;4.85;3.88;;;10.80;99.90;;;;;;5074366;28;20483;-48
2023/04/21 03:52:39;;;;;;;4.20;3.50;;;10.80;99.90;;;;;;5081288;28;20036;-49
2023/04/21 03:55:07;;;;;;;6.00;3.67;;;10.80;99.90;;;;;;5083982;28;20024;-51
2023/04/21 03:57:33;;;;;;;4.53;3.20;;;10.80;99.90;;;;;;5026013;28;20048;-49
2023/04/21 03:59:59;;;;;;;4.80;3.20;;;10.60;99.90;;;;;;5032257;28;20040;-48
2023/04/21 04:02:25;;;;;;;3.50;2.78;;;;;;;;;;5079860;28;20490;-49
2023/04/21 04:04:51;;;;;;;5.32;3.63;;;10.50;99.90;;;;;;5055047;28;20128;-50
2023/04/21 04:07:16;;;;;;;5.65;3.90;;;10.50;99.90;;;;;;5035254;28;20130;-50
2023/04/21 04:09:43;;;;;;;5.30;3.88;;;10.60;99.90;;;;;;5080554;28;20028;-49
2023/04/21 04:12:08;;;;;;;5.68;3.67;;;10.60;99.90;;;;;;5075857;28;20043;-49
2023/04/21 04:14:34;;;;;;;6.15;4.40;;;10.70;99.90;;;;;;5081009;28;20464;-49
2023/04/21 04:17:00;;;;;;;3.85;2.95;;;10.70;99.90;;;;;;5041397;28;20372;-50
2023/04/21 04:19:30;;;;;;;5.57;3.67;;;10.70;99.90;;;;;;5075220;28;20031;-48
2023/04/21 04:21:58;;;;;;;6.45;4.18;;;10.70;99.90;;;;;;5080246;28;20514;-51
2023/04/21 04:24:25;;;;;;;4.78;3.40;;;10.70;99.90;;;;;;5073441;28;20517;-52
2023/04/21 04:26:53;;;;;;;4.30;3.03;;;10.80;99.90;;;;;;5075844;28;20387;-50
2023/04/21 04:29:21;;;;;;;4.85;3.38;;;10.80;99.90;;;;;;5083656;28;20036;-49
2023/04/21 04:31:48;;;;;;;5.10;3.40;;;10.90;99.90;;;;;;5081954;28;20028;-48
2023/04/21 04:34:14;;;;;;;6.10;3.53;;;10.90;99.90;;;;;;5085154;28;20482;-48
2023/04/21 04:36:41;;;;;;;5.53;3.60;;;10.90;99.90;;;;;;5074599;28;20036;-49
2023/04/21 04:39:09;;;;;;;6.05;3.80;;;11.00;99.90;;;;;;5067186;28;20039;-50
2023/04/21 04:41:35;;;;;;;7.80;4.05;;;;;;;;;;5076590;28;20071;-50
2023/04/21 04:44:03;;;;;;;5.53;3.67;;;11.10;99.90;;;;;;5077311;28;20101;-51
2023/04/21 04:46:32;;;;;;;4.90;3.80;;;11.00;99.90;;;;;;5076321;28;20471;-50
2023/04/21 04:48:59;;;;;;;4.97;3.95;;;;;;;;;;5077848;28;20108;-51
2023/04/21 04:51:25;;;;;;;5.05;3.85;;;;;;;;;;5073919;28;20108;-49
2023/04/21 04:53:51;;;;;;;6.80;3.65;;;;;;;;;;5036518;28;20437;-48
2023/04/21 04:56:17;;;;;;;5.10;3.75;;;;;;;;;;5028526;28;20477;-50
2023/04/21 04:58:45;;;;;;;4.30;3.58;;;;;;;;;;5078108;28;20106;-48
2023/04/21 05:01:15;;;;;;;6.30;4.22;;;;;;;;;;5086419;28;20028;-50
2023/04/21 05:03:41;;;;;;;4.47;3.45;;;11.60;99.90;;;;;;5081125;28;20097;-51
2023/04/21 05:06:08;;;;;;;5.32;3.67;;;;;;;;;;5022254;28;20110;-48
2023/04/21 05:08:35;;;;;;;5.35;4.18;;;;;;;;;;5081442;28;20051;-52
2023/04/21 05:11:01;;;;;;;8.63;4.38;;;;;;;;;;5073445;28;20030;-51
2023/04/21 05:13:27;;;;;;;7.00;4.30;;;;;;;;;;5071936;28;20461;-51
2023/04/21 05:15:57;;;;;;;4.22;2.70;;;;;;;;;;5045274;28;20044;-50
2023/04/21 05:18:23;;;;;;;4.68;3.20;;;11.80;99.90;;;;;;5077997;28;20039;-50
2023/04/21 05:20:48;;;;;;;4.72;3.97;;;11.60;99.90;;;;;;5071839;28;20029;-51
2023/04/21 05:23:15;;;;;;;5.88;3.45;;;;;;;;;;5075433;28;20036;-49
2023/04/21 05:25:41;;;;;;;6.57;4.55;;;;;;;;;;5074612;28;20028;-49
2023/04/21 05:28:06;;;;;;;7.03;3.97;;;11.70;99.90;;;;;;5053869;28;20441;-49
2023/04/21 05:30:32;;;;;;;5.05;3.63;;;11.90;99.90;;;;;;5078801;28;20020;-50
2023/04/21 05:32:58;;;;;;;7.07;4.03;;;12.00;99.90;;;;;;5040769;28;20043;-50
2023/04/21 05:35:24;;;;;;;6.45;4.07;;;12.10;99.90;;;;;;5083289;28;20028;-50
2023/04/21 05:37:50;;;;;;;6.20;4.55;;;12.40;99.90;;;;;;5077198;28;20383;-50
2023/04/21 05:40:15;;;;;;;5.93;4.15;;;12.40;99.90;;;;;;5005655;28;20036;-49
2023/04/21 05:42:41;;;;;;;3.30;3.00;;;12.30;99.90;;;;;;5078929;28;20525;-50
2023/04/21 05:45:07;;;;;;;3.67;2.38;;;12.50;99.90;;;;;;5036313;28;20043;-50
2023/04/21 05:47:33;;;;;;;3.95;3.13;;;12.50;99.90;;;;;;5049447;28;20037;-50
2023/04/21 05:49:59;;;;;;;8.98;6.05;;;;;;;;;;5075997;28;20098;-51
2023/04/21 05:52:24;;;;;;;8.10;5.03;;;12.50;99.90;;;;;;5042040;28;20040;-50
2023/04/21 05:54:50;;;;;;;7.57;4.22;;;;;;;;;;5063801;28;20039;-50
2023/04/21 05:57:17;;;;;;;10.00;5.40;;;;;;;;;;5034325;28;20044;-49
2023/04/21 05:59:42;;;;;;;8.85;5.25;;;12.80;99.90;;;;;;5046531;28;20392;-49
2023/04/21 06:02:08;;;;;;;5.75;3.75;;;12.90;99.90;;;;;;5068363;28;20027;-49
2023/04/21 06:04:34;;;;;;;7.25;4.47;;;13.00;99.90;;;;;;5037827;28;20068;-49
2023/04/21 06:07:12;;;;;;;7.00;3.88;;;;;;;;;;5079010;28;20487;-50
2023/04/21 06:09:38;;;;;;;5.78;3.55;;;13.40;99.90;;;;;;5077759;28;20072;-50
2023/04/21 06:12:05;;;;;;;5.40;3.50;;;13.20;99.90;;;;;;5077798;28;20031;-50
2023/04/21 06:14:31;;;;;;;5.55;3.92;;;;;;;;;;5068462;28;20083;-50
2023/04/21 06:16:57;;;;;;;19.55;4.55;;;13.50;99.90;;;;;;5082264;28;20360;-49
2023/04/21 06:19:23;;;;;;;5.47;4.05;;;13.30;99.90;;;;;;5071290;28;20422;-49
2023/04/21 06:21:49;;;;;;;3.67;3.05;;;13.50;99.90;;;;;;5075826;28;20033;-50
2023/04/21 06:24:15;;;;;;;6.35;3.60;;;13.50;99.90;;;;;;4995092;28;20051;-49
2023/04/21 06:26:41;;;;;;;6.35;3.20;;;13.70;99.90;;;;;;5073504;28;20048;-50
2023/04/21 06:29:07;;;;;;;1.33;1.23;;;13.70;99.90;;;;;;5074682;28;20344;-50
2023/04/21 06:31:33;;;;;;;5.90;3.58;;;13.60;99.90;;;;;;5077635;28;20032;-51
2023/04/21 06:33:58;;;;;;;6.60;4.20;;;13.80;99.90;;;;;;5075822;28;20027;-50
2023/04/21 06:36:24;;;;;;;7.65;3.33;;;13.90;99.90;;;;;;5077397;28;20032;-50
2023/04/21 06:38:50;;;;;;;3.42;2.30;;;13.80;99.90;;;;;;5063632;28;20171;-50
2023/04/21 06:41:17;;;;;;;5.22;3.67;;;13.90;99.90;;;;;;5079096;28;20028;-50
2023/04/21 06:43:42;;;;;;;2.88;2.45;;;13.90;99.90;;;;;;5074292;28;20411;-50
2023/04/21 06:46:08;;;;;;;6.43;3.60;;;13.80;99.90;;;;;;5089478;28;20027;-50
2023/04/21 06:48:34;;;;;;;5.72;2.95;;;13.80;99.90;;;;;;5072877;28;20106;-50
2023/04/21 06:51:01;;;;;;;5.78;3.83;;;13.80;99.90;;;;;;5072193;28;20044;-50
2023/04/21 06:53:27;;;;;;;7.22;3.58;;;13.90;99.90;;;;;;5034261;28;20051;-50
2023/04/21 06:55:53;;;;;;;3.97;3.25;;;14.40;99.90;;;;;;5091006;28;20024;-50
2023/04/21 06:58:18;;;;;;;8.18;4.20;;;14.40;99.90;;;;;;5029800;28;20044;-50
2023/04/21 07:00:45;;;;;;;5.35;3.80;;;14.40;99.90;;;;;;5035947;28;20029;-50
2023/04/21 07:03:11;;;;;;;7.10;4.18;;;14.60;99.90;;;;;;5028897;28;20569;-50
2023/04/21 07:05:37;;;;;;;8.60;4.13;;;;;;;;;;5078703;28;20064;-49
2023/04/21 07:08:03;;;;;;;4.38;3.33;;;14.90;99.90;;;;;;5077222;28;20020;-50
2023/04/21 07:10:29;;;;;;;6.90;3.63;;;15.10;99.90;;;;;;5083048;28;20118;-50
2023/04/21 07:12:55;;;;;;;4.93;3.03;;;15.10;99.90;;;;;;5060064;28;20071;-50
2023/04/21 07:15:21;;;;;;;8.52;4.10;;;;;;;;;;5075049;28;20810;-50
2023/04/21 07:17:47;;;;;;;7.22;3.85;;;13.00;99.90;;;;;;5073439;28;20436;-50
2023/04/21 07:20:13;;;;;;;7.50;4.10;;;;;;;;;;5074028;28;20059;-50
2023/04/21 07:22:39;;;;;;;7.07;4.15;;;;;;;;;;5073076;28;20082;-50
2023/04/21 07:25:05;;;;;;;5.03;3.53;;;;;;;;;;5075786;28;20475;-50
2023/04/21 07:27:32;;;;;;;4.82;3.28;;;;;;;;;;5076899;28;20125;-50
2023/04/21 07:29:59;;;;;;;5.53;3.72;;;;;;;;;;5083311;28;20033;-49
2023/04/21 07:32:25;;;;;;;6.00;3.15;;;;;;;;;;5078295;28;20112;-50
2023/04/21 07:34:50;;;;;;;4.40;3.30;;;15.80;99.90;;;;;;5090367;28;20111;-51
2023/04/21 07:37:17;;;;;;;3.05;2.75;;;15.80;99.90;;;;;;5027443;28;20159;-50
2023/04/21 07:39:43;;;;;;;7.97;3.63;;;15.60;99.90;;;;;;5080147;28;20059;-50
2023/04/21 07:42:09;;;;;;;4.10;3.20;;;15.90;99.90;;;;;;5083217;28;20512;-50
2023/04/21 07:44:35;;;;;;;5.03;3.22;;;15.90;99.90;;;;;;5079587;28;20033;-50
2023/04/21 07:47:01;;;;;;;5.22;3.50;;;16.20;99.90;;;;;;5060509;28;20093;-51
2023/04/21 07:49:27;;;;;;;7.95;4.65;;;16.40;99.90;;;;;;5078218;28;20044;-50
2023/04/21 07:51:53;;;;;;;5.68;3.75;;;16.30;99.90;;;;;;5078115;28;20025;-50
2023/04/21 07:54:19;;;;;;;5.68;3.38;;;;;;;;;;5079524;28;20027;-51
2023/04/21 07:56:45;;;;;;;7.18;4.00;;;16.90;99.90;;;;;;5086389;28;20025;-50
2023/04/21 07:59:12;;;;;;;4.93;3.05;;;16.80;99.90;;;;;;5076231;28;20368;-51
2023/04/21 08:01:37;;;;;;;4.95;3.47;;;16.70;99.90;;;;;;5070485;28;20025;-51
2023/04/21 08:04:03;;;;;;;6.10;3.45;;;16.70;99.90;;;;;;5042247;28;20051;-50
2023/04/21 08:06:29;;;;;;;6.03;3.38;;;16.80;99.90;;;;;;5080535;28;20029;-50
2023/04/21 08:08:55;;;;;;;6.20;4.10;;;16.90;99.90;;;;;;5060372;28;20039;-50
2023/04/21 08:11:21;;;;;;;6.70;3.78;;;17.10;99.90;;;;;;5078056;28;20504;-50
2023/04/21 08:13:47;;;;;;;6.18;3.85;;;17.20;99.90;;;;;;5081966;28;20430;-49
2023/04/21 08:16:13;;;;;;;5.82;3.83;;;17.30;99.90;;;;;;5082365;28;20416;-49
2023/04/21 08:18:39;;;;;;;6.15;4.07;;;17.50;99.90;;;;;;5079648;28;20156;-51
2023/04/21 08:21:04;;;;;;;6.00;3.33;;;17.80;99.90;;;;;;5071177;28;20107;-50
2023/04/21 08:23:30;;;;;;;5.90;4.47;;;17.90;99.90;;;;;;5076900;28;20787;-51
2023/04/21 08:25:56;;;;;;;6.35;3.92;;;18.10;99.90;;;;;;5076888;28;20021;-50
2023/04/21 08:28:22;;;;;;;4.93;3.05;;;;;;;;;;5084291;28;20035;-51
2023/04/21 08:30:48;;;;;;;4.70;3.47;;;;;;;;;;5037747;28;20028;-50
2023/04/21 08:33:14;;;;;;;5.15;3.53;;;;;;;;;;5075076;28;20119;-49
2023/04/21 08:35:41;;;;;;;5.22;3.05;;;;;;;;;;5033275;28;20045;-50
2023/04/21 08:38:08;;;;;;;6.25;3.85;;;18.90;99.90;;;;;;5076786;28;20032;-51
2023/04/21 08:40:35;;;;;;;5.40;3.75;;;18.80;99.90;;;;;;5077402;28;20142;-50
2023/04/21 08:43:01;;;;;;;3.85;3.42;;;;;;;;;;5086692;28;20040;-50
2023/04/21 08:45:27;;;;;;;4.63;2.72;;;19.70;99.90;;;;;;5048866;28;20041;-50
2023/04/21 08:47:55;;;;;;;4.55;3.20;;;;;;;;;;5081121;28;20119;-50
2023/04/21 08:50:26;;;;;;;5.28;3.58;;;20.00;99.90;;;;;;5081532;28;20051;-50
2023/04/21 08:52:53;;;;;;;5.32;2.72;;;;;;;;;;5074129;28;20089;-48
2023/04/21 08:55:19;;;;;;;7.68;2.92;;;20.30;99.90;;;;;;5065727;28;20028;-49
2023/04/21 08:57:45;;;;;;;4.55;2.92;;;20.40;99.90;;;;;;5076294;28;20112;-48
2023/04/21 09:00:11;;;;;;;3.78;2.83;;;20.20;99.90;;;;;;5044558;28;20461;-49
2023/04/21 09:02:58;;;;;;;5.25;2.85;;;20.50;99.90;;;;;;5078562;28;20039;-49
2023/04/21 09:05:26;;;;;;;3.13;2.17;;;;;;;;;;5052666;28;20119;-49
2023/04/21 09:08:05;;;;;;;3.17;1.92;;;21.20;99.90;;;;;;5065508;28;20037;-49
2023/04/21 09:10:31;;;;;;;7.07;2.83;;;21.10;99.90;;;;;;5070509;28;20037;-50
2023/04/21 09:12:56;;;;;;;5.18;2.35;;;21.00;99.90;;;;;;5078203;28;20034;-48
2023/04/21 09:15:22;;;;;;;3.00;2.13;;;21.40;99.90;;;;;;5069725;28;20106;-46
2023/04/21 09:17:55;;;;;;;3.28;2.40;;;21.70;99.90;;;;;;5080258;28;20026;-46
2023/04/21 09:20:21;;;;;;;3.70;2.88;;;21.40;99.90;;;;;;5072780;28;20299;-47
2023/04/21 09:22:49;;;;;;;6.57;2.88;;;21.40;99.90;;;;;;5031340;28;20047;-48
2023/04/21 09:25:18;;;;;;;4.60;2.42;;;21.70;99.90;;;;;;5071283;28;20020;-47
2023/04/21 09:27:44;;;;;;;6.88;2.60;;;22.30;99.90;;;;;;5080020;28;20128;-47
2023/04/21 09:30:10;;;;;;;2.60;1.77;;;22.30;99.90;;;;;;5086773;28;20028;-48
2023/04/21 09:32:37;;;;;;;4.22;1.95;;;;;;;;;;4991383;28;20082;-47
2023/04/21 09:35:05;;;;;;;3.55;2.20;;;;;;;;;;5081426;28;20107;-48
2023/04/21 09:37:34;;;;;;;3.38;2.20;;;22.20;99.90;;;;;;5022898;28;20132;-48
2023/04/21 09:40:00;;;;;;;3.85;2.30;;;21.70;99.90;;;;;;5031291;28;20040;-48
2023/04/21 09:42:30;;;;;;;3.67;2.30;;;22.20;99.90;;;;;;5077815;28;21556;-48
2023/04/21 09:44:56;;;;;;;4.22;1.80;;;21.90;99.90;;;;;;5076541;28;20434;-48
2023/04/21 09:47:22;;;;;;;4.93;2.30;;;22.20;99.90;;;;;;5071660;28;20112;-48
2023/04/21 09:49:52;;;;;;;2.90;1.88;;;;;;;;;;5085296;28;20048;-47
2023/04/21 09:52:21;;;;;;;3.67;2.30;;;;;;;;;;5074142;28;20407;-47
2023/04/21 09:54:56;;;;;;;3.78;2.10;;;25.50;98.30;;;;;;5036324;28;20119;-48
2023/04/21 09:57:24;;;;;;;3.47;2.08;;;23.70;99.90;;;;;;5073615;28;20058;-47
2023/04/21 10:00:08;;;;;;;5.88;2.67;;;23.60;96.60;;;;;;5078453;28;20123;-46
2023/04/21 10:02:35;;;;;;;3.30;2.30;;;;;;;;;;5013625;28;20131;-51
2023/04/21 10:05:01;;;;;;;3.50;2.30;;;;;;;;;;5082175;28;20070;-50
2023/04/21 10:07:27;;;;;;;1.88;1.50;;;;;;;;;;5075326;28;20042;-49
2023/04/21 10:09:55;;;;;;;6.80;2.28;;;;;;;;;;5068709;28;20029;-48
2023/04/21 10:12:23;;;;;;;3.15;1.90;;;24.00;97.70;;;;;;5069812;28;20039;-47
2023/04/21 10:14:55;;;;;;;3.10;2.00;;;23.90;95.40;;;;;;5078154;28;20029;-51
2023/04/21 10:17:25;;;;;;;2.40;1.80;;;23.80;95.20;;;;;;5072551;28;20098;-49
2023/04/21 10:19:56;;;;;;;4.68;1.85;;;24.00;95.20;;;;;;5023320;28;20101;-47
2023/04/21 10:22:41;;;;;;;2.08;1.63;;;24.40;94.40;;;;;;5081914;28;20065;-49
2023/04/21 10:25:08;;;;;;;2.88;1.50;;;24.50;93.40;;;;;;5073310;28;20024;-49
2023/04/21 10:27:39;;;;;;;3.15;1.65;;;24.10;93.70;;;;;;5080845;28;20039;-49
2023/04/21 10:30:25;;;;;;;2.65;1.38;;;23.60;99.00;;;;;;5024166;28;20045;-49
2023/04/21 10:33:04;;;;;;;2.78;1.52;;;23.40;94.90;;;;;;5067742;28;20033;-49
2023/04/21 10:35:58;;;;;;;1.85;1.60;;;23.20;96.30;;;;;;5075955;28;20028;-49
2023/04/21 10:38:41;;;;;;;3.35;1.88;;;;;;;;;;5066173;28;20048;-50
2023/04/21 10:41:25;;;;;;;2.65;1.65;;;24.10;99.90;;;;;;5047125;28;20036;-50
2023/04/21 10:43:51;;;;;;;4.38;1.52;;;24.20;98.10;;;;;;5043118;28;20393;-49
2023/04/21 10:46:44;;;;;;;3.95;1.48;;;23.70;96.00;;;;;;5072638;28;20039;-48
2023/04/21 10:49:30;;;;;;;2.05;1.60;;;;;;;;;;5070048;28;20028;-50
2023/04/21 10:52:01;;;;;;;2.58;1.50;;;;;;;;;;5079438;28;20470;-49
2023/04/21 10:54:32;;;;;;;2.45;1.60;;;;;;;;;;5074941;28;20059;-50
2023/04/21 10:57:00;;;;;;;2.63;1.38;;;;;;;;;;5040078;28;20062;-49
2023/04/21 10:59:26;;;;;;;2.42;1.70;;;;;;;;;;5075583;28;20076;-49
2023/04/21 11:01:52;;;;;;;2.80;1.63;;;;;;;;;;5082286;28;20146;-49
2023/04/21 11:04:20;;;;;;;1.92;1.52;;;23.90;99.90;;;;;;5083127;28;20073;-49
2023/04/21 11:07:07;;;;;;;4.97;1.65;;;23.70;96.60;;;;;;5071475;28;20033;-49
2023/04/21 11:09:34;;;;;;;8.57;2.13;;;23.50;93.00;;;;;;5078621;28;20069;-49
2023/04/21 11:12:03;;;;;;;1.40;1.27;;;24.20;95.10;;;;;;5082094;28;20032;-49
2023/04/21 11:14:30;;;;;;;3.10;1.35;;;24.60;94.70;;;;;;5076000;28;20446;-49
2023/04/21 11:16:55;;;;;;;1.63;1.50;;;24.20;99.90;;;;;;5077926;28;20040;-49
2023/04/21 11:19:24;;;;;;;4.22;1.63;;;;;;;;;;5076560;28;20028;-49
2023/04/21 11:21:50;;;;;;;2.65;1.50;;;;;;;;;;5078570;28;20037;-49
2023/04/21 11:24:16;;;;;;;2.53;1.77;;;23.40;98.40;;;;;;5072001;28;20033;-50
2023/04/21 11:26:41;;;;;;;1.70;1.30;;;23.40;93.20;;;;;;5040435;28;20036;-50
2023/04/21 11:29:09;;;;;;;2.28;1.50;;;23.30;92.80;;;;;;5079413;28;20020;-50
2023/04/21 11:31:36;;;;;;;3.35;1.50;;;23.70;99.80;;;;;;5078380;28;20036;-49
2023/04/21 11:34:06;;;;;;;2.22;1.48;;;;;;;;;;5080989;28;20106;-50
2023/04/21 11:36:32;;;;;;;2.42;1.35;;;;;;;;;;5078467;28;20074;-50
2023/04/21 11:39:02;;;;;;;2.85;1.52;;;24.10;91.90;;;;;;5075090;28;20057;-49
2023/04/21 11:41:28;;;;;;;2.63;1.60;;;;;;;;;;5043254;28;20105;-49
2023/04/21 11:43:54;;;;;;;2.63;1.70;;;25.40;92.30;;;;;;5082594;28;20036;-49
2023/04/21 11:46:23;;;;;;;2.90;1.80;;;25.20;92.70;;;;;;5075238;28;20475;-49
2023/04/21 11:49:00;;;;;;;4.15;1.83;;;;;;;;;;5080437;28;20403;-49
2023/04/21 11:51:26;;;;;;;2.92;1.63;;;;;;;;;;5007056;28;20108;-49
2023/04/21 11:53:52;;;;;;;1.63;1.20;;;23.50;92.80;;;;;;5061667;28;20468;-48
2023/04/21 11:56:23;;;;;;;2.60;1.48;;;22.80;91.80;;;;;;5055268;28;20084;-49
2023/04/21 11:58:53;;;;;;;3.50;1.77;;;;;;;;;;5017425;28;20726;-49
2023/04/21 12:01:20;;;;;;;2.50;1.33;;;22.20;99.90;;;;;;5064709;28;20031;-49
2023/04/21 12:03:53;;;;;;;3.83;1.67;;;;;;;;;;5055257;28;20116;-49
2023/04/21 12:06:20;;;;;;;3.45;1.75;;;;;;;;;;5062015;28;20124;-49
2023/04/21 12:08:45;;;;;;;1.88;0.98;;;20.90;95.80;;;;;;5058302;28;20403;-49
2023/04/21 12:11:12;;;;;;;2.60;1.42;;;;;;;;;;5059476;28;20124;-50
2023/04/21 12:13:39;;;;;;;3.63;1.25;;;21.40;93.60;;;;;;5006965;28;20048;-49
2023/04/21 12:16:06;;;;;;;5.28;1.38;;;;;;;;;;5010445;28;20033;-47
2023/04/21 12:18:32;;;;;;;1.10;0.82;;;22.80;93.40;;;;;;5061522;28;20029;-47
2023/04/21 12:21:02;;;;;;;3.70;1.13;;;23.70;91.40;;;;;;5043008;28;20041;-48
2023/04/21 12:23:28;;;;;;;2.20;0.95;;;23.70;91.20;;;;;;5029227;28;20085;-47
2023/04/21 12:25:54;;;;;;;2.75;1.10;;;24.00;90.90;;;;;;5063841;28;20071;-48
2023/04/21 12:28:20;;;;;;;0.80;0.80;;;23.50;90.40;;;;;;5030122;28;20481;-49
2023/04/21 12:30:46;;;;;;;1.40;1.30;;;24.00;89.70;;;;;;5055100;28;20037;-48
2023/04/21 12:33:11;;;;;;;4.00;0.90;;;23.80;89.40;;;;;;5056004;28;20028;-47
2023/04/21 12:35:38;;;;;;;1.58;1.35;;;23.80;88.40;;;;;;5034089;28;20063;-47
2023/04/21 12:38:04;;;;;;;1.10;0.77;;;23.90;90.50;;;;;;5062692;28;20032;-47
2023/04/21 12:40:29;;;;;;;1.52;0.80;;;23.60;90.00;;;;;;5048983;28;20098;-47
2023/04/21 12:42:55;;;;;;;1.38;0.98;;;23.60;89.60;;;;;;5056035;28;20044;-46
2023/04/21 12:45:21;;;;;;;1.48;0.85;;;23.40;89.10;;;;;;4998257;28;20041;-46
2023/04/21 12:47:47;;;;;;;1.20;0.93;;;23.40;89.50;;;;;;5058096;28;20025;-45
2023/04/21 12:50:13;;;;;;;2.25;0.77;;;23.70;90.10;;;;;;5071643;28;20141;-48
2023/04/21 12:52:38;;;;;;;0.95;0.70;;;23.20;87.20;;;;;;5078319;28;20024;-46
2023/04/21 12:55:05;;;;;;;1.27;0.88;;;23.60;87.50;;;;;;5074647;28;20020;-46
2023/04/21 12:57:31;;;;;;;0.85;0.85;;;23.80;90.20;;;;;;5044167;28;20041;-46
2023/04/21 12:59:59;;;;;;;3.72;1.73;;;24.10;88.10;;;;;;5071648;28;20025;-46
2023/04/21 13:02:25;;;;;;;3.45;2.17;;;23.70;87.70;;;;;;5069628;28;20111;-46
2023/04/21 13:04:50;;;;;;;1.08;0.93;;;23.80;88.10;;;;;;5084770;28;20024;-47
2023/04/21 13:07:20;;;;;;;2.70;1.50;;;;;;;;;;5081219;28;20120;-47